Date,TemperatureHighF,TemperatureAvgF,TemperatureLowF,DewpointHighF,DewpointAvgF,DewpointLowF,HumidityHigh,HumidityAvg,HumidityLow,PressureMaxIn,PressureMinIn,WindSpeedMaxMPH,WindSpeedAvgMPH,GustSpeedMaxMPH,PrecipitationSumIn
2013-4-1,71.5,57.6,42.8,53.6,45.6,35.9,93,68,35,29.94,29.76,11,2,11,0.00
2013-4-2,61.0,49.7,39.2,37.1,29.2,23.1,69,47,26,30.10,29.94,10,3,12,0.00
2013-4-3,59.8,50.3,41.8,36.5,27.2,22.3,70,42,30,30.09,29.99,11,3,11,0.01
2013-4-4,45.7,44.5,43.4,42.3,40.3,36.4,90,85,70,30.03,29.84,9,1,10,0.64
2013-4-5,65.3,51.6,42.1,44.4,39.6,34.8,92,67,35,29.97,29.84,16,3,16,0.02
2013-4-6,75.2,55.7,34.6,49.4,39.2,30.7,87,59,33,30.06,29.93,13,3,13,0.00
2013-4-7,78.8,62.9,47.5,51.9,44.7,37.3,71,53,37,30.05,29.91,11,3,11,0.00
2013-4-8,80.1,66.0,53.1,58.7,51.1,44.3,79,60,42,29.99,29.90,12,2,12,0.00
2013-4-9,83.9,67.7,50.0,62.5,54.0,45.9,87,64,44,30.07,29.91,12,2,12,0.00
2013-4-10,86.0,70.9,54.9,63.9,56.6,50.1,85,63,41,29.99,29.76,9,2,9,0.00
2013-4-11,80.3,69.2,59.9,63.2,58.5,52.6,91,70,54,29.79,29.47,16,4,17,1.67
2013-4-12,68.0,58.9,47.5,59.9,46.7,37.6,91,67,36,29.84,29.51,9,2,15,0.06
2013-4-13,74.9,58.3,40.1,45.9,40.4,36.5,89,56,29,29.95,29.83,8,1,8,0.00
2013-4-14,63.5,52.9,42.5,52.9,45.3,38.2,88,76,50,29.92,29.79,12,2,12,0.04
2013-4-15,78.7,67.1,55.8,61.5,56.4,51.3,88,70,52,29.98,29.79,11,4,11,0.00
2013-4-16,85.1,71.2,62.8,67.4,61.1,56.2,84,71,53,30.11,29.98,14,4,14,0.00
2013-4-17,89.3,72.0,63.9,69.8,62.9,58.9,91,74,51,30.08,29.92,14,3,14,1.11
2013-4-18,83.3,71.2,60.8,64.4,59.2,56.9,89,68,44,29.94,29.70,15,5,15,0.00
2013-4-19,71.6,58.4,43.7,63.0,50.0,34.6,88,74,57,29.97,29.58,17,4,17,1.61
2013-4-20,63.7,48.7,31.9,39.2,32.9,28.4,88,58,29,30.13,29.96,10,2,11,0.00
2013-4-21,71.6,54.7,36.4,44.8,37.5,31.7,84,56,29,30.23,30.07,11,2,11,0.00
2013-4-22,73.8,60.6,47.9,48.4,42.3,37.0,71,52,33,30.18,30.00,11,3,11,0.00
2013-4-23,77.4,62.3,45.0,52.5,44.3,36.0,73,53,40,30.09,29.91,11,3,11,0.00
2013-4-24,73.3,61.4,48.2,60.9,52.8,42.9,86,74,61,30.08,29.90,13,3,13,0.14
2013-4-25,67.5,52.0,38.2,42.9,37.3,32.0,88,61,29,30.21,30.08,11,2,11,0.00
2013-4-26,77.4,58.0,37.8,49.4,40.3,33.1,88,56,29,30.24,30.09,13,2,13,0.33
2013-4-27,68.0,56.8,52.2,56.5,51.3,48.2,92,83,64,30.25,29.94,15,3,15,0.59
2013-4-28,58.9,57.5,55.8,56.3,54.4,52.4,92,89,84,29.99,29.81,17,5,17,2.13
2013-4-29,77.6,63.4,52.6,62.6,55.8,50.2,93,78,54,29.91,29.81,8,2,8,0.00
2013-4-30,81.5,63.9,48.1,64.8,54.3,45.6,92,74,47,29.96,29.83,9,1,10,0.00